sensor_id;sensor_type;location;lat;lon;timestamp;P1;durP1;ratioP1;P2;durP2;ratioP2
45887;SDS011;31595;51.418;7.572;2022-12-20T00:01:42;4.85;;;2.63;;
45887;SDS011;31595;51.418;7.572;2022-12-20T00:04:09;4.32;;;2.72;;
45887;SDS011;31595;51.418;7.572;2022-12-20T00:06:37;4.32;;;2.60;;
45887;SDS011;31595;51.418;7.572;2022-12-20T00:09:06;3.42;;;2.28;;
45887;SDS011;31595;51.418;7.572;2022-12-20T00:11:34;7.00;;;2.55;;
45887;SDS011;31595;51.418;7.572;2022-12-20T00:14:04;3.63;;;2.45;;
45887;SDS011;31595;51.418;7.572;2022-12-20T00:16:32;3.25;;;2.40;;
45887;SDS011;31595;51.418;7.572;2022-12-20T00:19:03;5.03;;;2.65;;
45887;SDS011;31595;51.418;7.572;2022-12-20T00:21:33;4.10;;;2.55;;
45887;SDS011;31595;51.418;7.572;2022-12-20T00:24:01;2.90;;;2.25;;
45887;SDS011;31595;51.418;7.572;2022-12-20T00:26:30;4.88;;;2.65;;
45887;SDS011;31595;51.418;7.572;2022-12-20T00:28:59;4.35;;;2.67;;
45887;SDS011;31595;51.418;7.572;2022-12-20T00:31:27;4.50;;;2.53;;
45887;SDS011;31595;51.418;7.572;2022-12-20T00:33:56;3.08;;;2.30;;
45887;SDS011;31595;51.418;7.572;2022-12-20T00:36:26;3.50;;;2.40;;
45887;SDS011;31595;51.418;7.572;2022-12-20T00:38:55;3.85;;;2.22;;
45887;SDS011;31595;51.418;7.572;2022-12-20T00:41:24;4.38;;;2.47;;
45887;SDS011;31595;51.418;7.572;2022-12-20T00:43:53;3.80;;;2.40;;
45887;SDS011;31595;51.418;7.572;2022-12-20T00:46:21;2.45;;;1.75;;
45887;SDS011;31595;51.418;7.572;2022-12-20T00:48:49;2.50;;;1.73;;
45887;SDS011;31595;51.418;7.572;2022-12-20T00:51:17;3.80;;;2.20;;
45887;SDS011;31595;51.418;7.572;2022-12-20T00:56:15;3.47;;;2.08;;
45887;SDS011;31595;51.418;7.572;2022-12-20T00:58:42;3.63;;;2.13;;
45887;SDS011;31595;51.418;7.572;2022-12-20T01:01:14;3.00;;;2.03;;
45887;SDS011;31595;51.418;7.572;2022-12-20T01:03:43;4.55;;;1.85;;
45887;SDS011;31595;51.418;7.572;2022-12-20T01:06:10;3.90;;;2.30;;
45887;SDS011;31595;51.418;7.572;2022-12-20T01:08:38;3.67;;;2.40;;
45887;SDS011;31595;51.418;7.572;2022-12-20T01:11:07;2.88;;;2.15;;
45887;SDS011;31595;51.418;7.572;2022-12-20T01:13:37;4.05;;;2.30;;
45887;SDS011;31595;51.418;7.572;2022-12-20T01:16:07;3.38;;;2.17;;
45887;SDS011;31595;51.418;7.572;2022-12-20T01:18:37;3.60;;;2.13;;
45887;SDS011;31595;51.418;7.572;2022-12-20T01:21:05;3.03;;;1.75;;
45887;SDS011;31595;51.418;7.572;2022-12-20T01:23:34;4.57;;;2.55;;
45887;SDS011;31595;51.418;7.572;2022-12-20T01:26:02;3.10;;;2.00;;
45887;SDS011;31595;51.418;7.572;2022-12-20T01:28:35;3.40;;;1.90;;
45887;SDS011;31595;51.418;7.572;2022-12-20T01:31:04;4.45;;;2.20;;
45887;SDS011;31595;51.418;7.572;2022-12-20T01:33:32;3.42;;;2.28;;
45887;SDS011;31595;51.418;7.572;2022-12-20T01:36:01;2.97;;;1.90;;
45887;SDS011;31595;51.418;7.572;2022-12-20T01:38:30;2.88;;;2.00;;
45887;SDS011;31595;51.418;7.572;2022-12-20T01:40:58;3.10;;;2.00;;
45887;SDS011;31595;51.418;7.572;2022-12-20T01:43:28;3.90;;;2.00;;
45887;SDS011;31595;51.418;7.572;2022-12-20T01:46:14;2.90;;;2.10;;
45887;SDS011;31595;51.418;7.572;2022-12-20T01:48:41;3.75;;;2.00;;
45887;SDS011;31595;51.418;7.572;2022-12-20T01:51:15;3.92;;;2.22;;
45887;SDS011;31595;51.418;7.572;2022-12-20T01:53:43;3.67;;;2.50;;
45887;SDS011;31595;51.418;7.572;2022-12-20T01:56:11;6.13;;;2.60;;
45887;SDS011;31595;51.418;7.572;2022-12-20T01:58:38;2.80;;;2.03;;
45887;SDS011;31595;51.418;7.572;2022-12-20T02:01:08;4.32;;;2.10;;
45887;SDS011;31595;51.418;7.572;2022-12-20T02:03:36;3.10;;;2.13;;
45887;SDS011;31595;51.418;7.572;2022-12-20T02:06:12;3.35;;;2.28;;
45887;SDS011;31595;51.418;7.572;2022-12-20T02:08:42;4.07;;;2.22;;
45887;SDS011;31595;51.418;7.572;2022-12-20T02:11:15;5.25;;;2.33;;
45887;SDS011;31595;51.418;7.572;2022-12-20T02:13:57;3.53;;;1.92;;
45887;SDS011;31595;51.418;7.572;2022-12-20T02:16:38;4.57;;;2.30;;
45887;SDS011;31595;51.418;7.572;2022-12-20T02:19:14;3.97;;;2.20;;
45887;SDS011;31595;51.418;7.572;2022-12-20T02:21:58;3.42;;;2.20;;
45887;SDS011;31595;51.418;7.572;2022-12-20T02:24:45;3.55;;;2.22;;
45887;SDS011;31595;51.418;7.572;2022-12-20T02:27:28;3.88;;;2.15;;
45887;SDS011;31595;51.418;7.572;2022-12-20T02:30:04;3.58;;;2.20;;
45887;SDS011;31595;51.418;7.572;2022-12-20T02:32:41;2.88;;;2.08;;
45887;SDS011;31595;51.418;7.572;2022-12-20T02:35:18;3.45;;;2.38;;
45887;SDS011;31595;51.418;7.572;2022-12-20T02:37:49;3.38;;;2.45;;
45887;SDS011;31595;51.418;7.572;2022-12-20T02:40:18;3.38;;;2.35;;
45887;SDS011;31595;51.418;7.572;2022-12-20T02:42:50;4.95;;;2.60;;
45887;SDS011;31595;51.418;7.572;2022-12-20T02:45:24;3.95;;;2.38;;
45887;SDS011;31595;51.418;7.572;2022-12-20T02:47:53;3.50;;;2.42;;
45887;SDS011;31595;51.418;7.572;2022-12-20T02:50:25;4.53;;;2.42;;
45887;SDS011;31595;51.418;7.572;2022-12-20T02:52:56;3.35;;;2.40;;
45887;SDS011;31595;51.418;7.572;2022-12-20T02:55:27;3.85;;;2.88;;
45887;SDS011;31595;51.418;7.572;2022-12-20T02:58:02;3.58;;;2.45;;
45887;SDS011;31595;51.418;7.572;2022-12-20T03:00:38;3.70;;;2.53;;
45887;SDS011;31595;51.418;7.572;2022-12-20T03:03:12;3.72;;;2.60;;
45887;SDS011;31595;51.418;7.572;2022-12-20T03:05:49;3.30;;;2.10;;
45887;SDS011;31595;51.418;7.572;2022-12-20T03:08:19;5.28;;;2.35;;
45887;SDS011;31595;51.418;7.572;2022-12-20T03:10:48;3.05;;;2.40;;
45887;SDS011;31595;51.418;7.572;2022-12-20T03:13:16;4.22;;;2.63;;
45887;SDS011;31595;51.418;7.572;2022-12-20T03:15:45;4.10;;;2.70;;
45887;SDS011;31595;51.418;7.572;2022-12-20T03:18:12;4.50;;;2.65;;
45887;SDS011;31595;51.418;7.572;2022-12-20T03:20:40;4.20;;;2.55;;
45887;SDS011;31595;51.418;7.572;2022-12-20T03:23:08;4.30;;;2.65;;
45887;SDS011;31595;51.418;7.572;2022-12-20T03:25:35;5.28;;;3.08;;
45887;SDS011;31595;51.418;7.572;2022-12-20T03:28:03;5.70;;;2.90;;
45887;SDS011;31595;51.418;7.572;2022-12-20T03:30:30;3.72;;;2.85;;
45887;SDS011;31595;51.418;7.572;2022-12-20T03:32:59;3.28;;;2.40;;
45887;SDS011;31595;51.418;7.572;2022-12-20T03:35:26;4.47;;;2.53;;
45887;SDS011;31595;51.418;7.572;2022-12-20T03:37:54;5.60;;;2.78;;
45887;SDS011;31595;51.418;7.572;2022-12-20T03:40:21;4.13;;;2.95;;
45887;SDS011;31595;51.418;7.572;2022-12-20T03:42:49;4.65;;;2.80;;
45887;SDS011;31595;51.418;7.572;2022-12-20T03:45:16;3.88;;;2.60;;
45887;SDS011;31595;51.418;7.572;2022-12-20T03:47:43;5.25;;;2.95;;
45887;SDS011;31595;51.418;7.572;2022-12-20T03:50:12;3.65;;;2.75;;
45887;SDS011;31595;51.418;7.572;2022-12-20T03:52:39;4.20;;;2.88;;
45887;SDS011;31595;51.418;7.572;2022-12-20T03:55:07;5.53;;;2.70;;
45887;SDS011;31595;51.418;7.572;2022-12-20T03:57:37;2.95;;;2.40;;
45887;SDS011;31595;51.418;7.572;2022-12-20T04:00:05;3.95;;;2.80;;
45887;SDS011;31595;51.418;7.572;2022-12-20T04:02:33;3.47;;;2.33;;
45887;SDS011;31595;51.418;7.572;2022-12-20T04:05:00;4.75;;;2.58;;
45887;SDS011;31595;51.418;7.572;2022-12-20T04:07:29;5.88;;;2.63;;
45887;SDS011;31595;51.418;7.572;2022-12-20T04:09:56;5.55;;;2.75;;
45887;SDS011;31595;51.418;7.572;2022-12-20T04:12:23;3.53;;;2.47;;
45887;SDS011;31595;51.418;7.572;2022-12-20T04:14:51;3.60;;;2.58;;
45887;SDS011;31595;51.418;7.572;2022-12-20T04:17:18;6.82;;;2.70;;
45887;SDS011;31595;51.418;7.572;2022-12-20T04:19:45;4.57;;;2.70;;
45887;SDS011;31595;51.418;7.572;2022-12-20T04:22:13;4.72;;;2.70;;
45887;SDS011;31595;51.418;7.572;2022-12-20T04:24:41;5.57;;;2.92;;
45887;SDS011;31595;51.418;7.572;2022-12-20T04:27:09;4.53;;;3.08;;
45887;SDS011;31595;51.418;7.572;2022-12-20T04:29:36;4.40;;;2.70;;
45887;SDS011;31595;51.418;7.572;2022-12-20T04:32:03;3.97;;;3.03;;
45887;SDS011;31595;51.418;7.572;2022-12-20T04:34:30;8.30;;;4.10;;
45887;SDS011;31595;51.418;7.572;2022-12-20T04:36:58;5.00;;;3.13;;
45887;SDS011;31595;51.418;7.572;2022-12-20T04:39:25;5.80;;;3.67;;
45887;SDS011;31595;51.418;7.572;2022-12-20T04:41:54;5.43;;;3.97;;
45887;SDS011;31595;51.418;7.572;2022-12-20T04:44:21;6.25;;;3.78;;
45887;SDS011;31595;51.418;7.572;2022-12-20T04:46:48;7.13;;;3.60;;
45887;SDS011;31595;51.418;7.572;2022-12-20T04:49:16;6.30;;;4.00;;
45887;SDS011;31595;51.418;7.572;2022-12-20T04:51:43;6.82;;;4.30;;
45887;SDS011;31595;51.418;7.572;2022-12-20T04:54:10;6.30;;;4.60;;
45887;SDS011;31595;51.418;7.572;2022-12-20T04:56:38;7.30;;;4.43;;
45887;SDS011;31595;51.418;7.572;2022-12-20T04:59:07;8.38;;;4.53;;
45887;SDS011;31595;51.418;7.572;2022-12-20T05:04:02;7.55;;;4.20;;
45887;SDS011;31595;51.418;7.572;2022-12-20T05:06:38;9.95;;;4.78;;
45887;SDS011;31595;51.418;7.572;2022-12-20T05:09:05;9.10;;;5.35;;
45887;SDS011;31595;51.418;7.572;2022-12-20T05:11:33;10.45;;;5.53;;
45887;SDS011;31595;51.418;7.572;2022-12-20T05:14:00;10.88;;;5.80;;
45887;SDS011;31595;51.418;7.572;2022-12-20T05:16:29;8.70;;;6.15;;
45887;SDS011;31595;51.418;7.572;2022-12-20T05:18:56;10.20;;;6.38;;
45887;SDS011;31595;51.418;7.572;2022-12-20T05:21:23;9.73;;;6.75;;
45887;SDS011;31595;51.418;7.572;2022-12-20T05:24:08;9.13;;;7.28;;
45887;SDS011;31595;51.418;7.572;2022-12-20T05:26:55;8.07;;;5.43;;
45887;SDS011;31595;51.418;7.572;2022-12-20T05:29:22;11.90;;;6.93;;
45887;SDS011;31595;51.418;7.572;2022-12-20T05:31:51;7.30;;;5.65;;
45887;SDS011;31595;51.418;7.572;2022-12-20T05:34:18;8.30;;;5.63;;
45887;SDS011;31595;51.418;7.572;2022-12-20T05:36:45;9.45;;;5.57;;
45887;SDS011;31595;51.418;7.572;2022-12-20T05:39:12;7.70;;;4.85;;
45887;SDS011;31595;51.418;7.572;2022-12-20T05:41:40;8.88;;;5.35;;
45887;SDS011;31595;51.418;7.572;2022-12-20T05:44:07;9.30;;;6.10;;
45887;SDS011;31595;51.418;7.572;2022-12-20T05:46:34;6.43;;;4.78;;
45887;SDS011;31595;51.418;7.572;2022-12-20T05:49:03;8.65;;;5.63;;
45887;SDS011;31595;51.418;7.572;2022-12-20T05:51:30;8.90;;;4.50;;
45887;SDS011;31595;51.418;7.572;2022-12-20T05:53:58;6.22;;;4.65;;
45887;SDS011;31595;51.418;7.572;2022-12-20T05:56:25;7.80;;;4.75;;
45887;SDS011;31595;51.418;7.572;2022-12-20T05:58:53;7.20;;;4.80;;
45887;SDS011;31595;51.418;7.572;2022-12-20T06:01:20;7.85;;;4.55;;
45887;SDS011;31595;51.418;7.572;2022-12-20T06:03:47;7.10;;;4.55;;
45887;SDS011;31595;51.418;7.572;2022-12-20T06:06:17;5.72;;;3.65;;
45887;SDS011;31595;51.418;7.572;2022-12-20T06:08:44;6.20;;;3.90;;
45887;SDS011;31595;51.418;7.572;2022-12-20T06:11:11;6.30;;;4.20;;
45887;SDS011;31595;51.418;7.572;2022-12-20T06:13:38;8.23;;;3.78;;
45887;SDS011;31595;51.418;7.572;2022-12-20T06:16:06;5.47;;;4.25;;
45887;SDS011;31595;51.418;7.572;2022-12-20T06:18:33;6.38;;;4.50;;
45887;SDS011;31595;51.418;7.572;2022-12-20T06:21:00;5.63;;;3.88;;
45887;SDS011;31595;51.418;7.572;2022-12-20T06:23:29;6.80;;;3.83;;
45887;SDS011;31595;51.418;7.572;2022-12-20T06:25:56;7.40;;;3.80;;
45887;SDS011;31595;51.418;7.572;2022-12-20T06:28:23;4.70;;;3.25;;
45887;SDS011;31595;51.418;7.572;2022-12-20T06:30:51;4.20;;;2.88;;
45887;SDS011;31595;51.418;7.572;2022-12-20T06:33:19;5.72;;;3.42;;
45887;SDS011;31595;51.418;7.572;2022-12-20T06:35:50;4.25;;;2.90;;
45887;SDS011;31595;51.418;7.572;2022-12-20T06:38:18;6.65;;;3.47;;
45887;SDS011;31595;51.418;7.572;2022-12-20T06:40:47;4.15;;;2.95;;
45887;SDS011;31595;51.418;7.572;2022-12-20T06:43:14;5.13;;;2.83;;
45887;SDS011;31595;51.418;7.572;2022-12-20T06:45:42;4.65;;;3.03;;
45887;SDS011;31595;51.418;7.572;2022-12-20T06:48:09;3.85;;;2.67;;
45887;SDS011;31595;51.418;7.572;2022-12-20T06:50:37;6.05;;;2.80;;
45887;SDS011;31595;51.418;7.572;2022-12-20T06:53:05;5.05;;;3.00;;
45887;SDS011;31595;51.418;7.572;2022-12-20T06:55:33;5.53;;;2.75;;
45887;SDS011;31595;51.418;7.572;2022-12-20T06:58:02;5.32;;;3.15;;
45887;SDS011;31595;51.418;7.572;2022-12-20T07:00:29;3.53;;;2.70;;
45887;SDS011;31595;51.418;7.572;2022-12-20T07:02:56;4.40;;;2.97;;
45887;SDS011;31595;51.418;7.572;2022-12-20T07:05:24;4.78;;;2.88;;
45887;SDS011;31595;51.418;7.572;2022-12-20T07:07:52;5.05;;;2.50;;
45887;SDS011;31595;51.418;7.572;2022-12-20T07:10:19;4.03;;;2.53;;
45887;SDS011;31595;51.418;7.572;2022-12-20T07:12:46;4.85;;;2.58;;
45887;SDS011;31595;51.418;7.572;2022-12-20T07:15:15;4.13;;;2.80;;
45887;SDS011;31595;51.418;7.572;2022-12-20T07:17:42;4.05;;;2.50;;
45887;SDS011;31595;51.418;7.572;2022-12-20T07:20:10;4.35;;;2.47;;
45887;SDS011;31595;51.418;7.572;2022-12-20T07:22:37;5.47;;;2.83;;
45887;SDS011;31595;51.418;7.572;2022-12-20T07:25:05;6.05;;;2.88;;
45887;SDS011;31595;51.418;7.572;2022-12-20T07:27:32;4.28;;;2.67;;
45887;SDS011;31595;51.418;7.572;2022-12-20T07:29:59;5.20;;;2.70;;
45887;SDS011;31595;51.418;7.572;2022-12-20T07:32:28;5.40;;;2.78;;
45887;SDS011;31595;51.418;7.572;2022-12-20T07:34:55;5.00;;;2.75;;
45887;SDS011;31595;51.418;7.572;2022-12-20T07:37:22;4.57;;;2.63;;
45887;SDS011;31595;51.418;7.572;2022-12-20T07:39:50;5.45;;;2.95;;
45887;SDS011;31595;51.418;7.572;2022-12-20T07:42:17;3.78;;;2.63;;
45887;SDS011;31595;51.418;7.572;2022-12-20T07:44:47;5.25;;;2.80;;
45887;SDS011;31595;51.418;7.572;2022-12-20T07:47:17;4.25;;;2.80;;
45887;SDS011;31595;51.418;7.572;2022-12-20T07:49:46;5.07;;;2.67;;
45887;SDS011;31595;51.418;7.572;2022-12-20T07:54:43;5.05;;;2.67;;
45887;SDS011;31595;51.418;7.572;2022-12-20T07:57:16;3.92;;;2.50;;
45887;SDS011;31595;51.418;7.572;2022-12-20T07:59:49;4.97;;;2.60;;
45887;SDS011;31595;51.418;7.572;2022-12-20T08:02:20;3.97;;;2.58;;
45887;SDS011;31595;51.418;7.572;2022-12-20T08:04:53;5.05;;;3.03;;
45887;SDS011;31595;51.418;7.572;2022-12-20T08:07:22;5.88;;;2.80;;
45887;SDS011;31595;51.418;7.572;2022-12-20T08:09:50;3.67;;;2.88;;
45887;SDS011;31595;51.418;7.572;2022-12-20T08:12:17;3.95;;;2.65;;
45887;SDS011;31595;51.418;7.572;2022-12-20T08:14:46;4.20;;;2.38;;
45887;SDS011;31595;51.418;7.572;2022-12-20T08:17:16;5.07;;;2.50;;
45887;SDS011;31595;51.418;7.572;2022-12-20T08:19:44;4.93;;;2.78;;
45887;SDS011;31595;51.418;7.572;2022-12-20T08:22:13;4.03;;;2.22;;
45887;SDS011;31595;51.418;7.572;2022-12-20T08:24:40;4.03;;;2.50;;
45887;SDS011;31595;51.418;7.572;2022-12-20T08:27:08;4.55;;;2.42;;
45887;SDS011;31595;51.418;7.572;2022-12-20T08:29:35;3.28;;;2.30;;
45887;SDS011;31595;51.418;7.572;2022-12-20T08:32:02;4.22;;;2.55;;
45887;SDS011;31595;51.418;7.572;2022-12-20T08:34:30;4.55;;;2.30;;
45887;SDS011;31595;51.418;7.572;2022-12-20T08:36:57;3.75;;;2.42;;
45887;SDS011;31595;51.418;7.572;2022-12-20T08:39:26;3.08;;;2.13;;
45887;SDS011;31595;51.418;7.572;2022-12-20T08:41:53;3.08;;;2.65;;
45887;SDS011;31595;51.418;7.572;2022-12-20T08:44:21;3.85;;;2.22;;
45887;SDS011;31595;51.418;7.572;2022-12-20T08:46:48;2.88;;;1.98;;
45887;SDS011;31595;51.418;7.572;2022-12-20T08:49:15;3.08;;;2.22;;
45887;SDS011;31595;51.418;7.572;2022-12-20T08:51:43;5.55;;;2.38;;
45887;SDS011;31595;51.418;7.572;2022-12-20T08:54:10;3.30;;;2.17;;
45887;SDS011;31595;51.418;7.572;2022-12-20T08:56:38;3.60;;;2.20;;
45887;SDS011;31595;51.418;7.572;2022-12-20T08:59:06;3.85;;;2.30;;
45887;SDS011;31595;51.418;7.572;2022-12-20T09:01:33;4.32;;;2.53;;
45887;SDS011;31595;51.418;7.572;2022-12-20T09:04:08;4.22;;;2.30;;
45887;SDS011;31595;51.418;7.572;2022-12-20T09:06:36;12.93;;;2.85;;
45887;SDS011;31595;51.418;7.572;2022-12-20T09:09:03;5.80;;;2.47;;
45887;SDS011;31595;51.418;7.572;2022-12-20T09:11:31;7.95;;;2.45;;
45887;SDS011;31595;51.418;7.572;2022-12-20T09:14:00;5.05;;;2.25;;
45887;SDS011;31595;51.418;7.572;2022-12-20T09:16:28;3.65;;;2.10;;
45887;SDS011;31595;51.418;7.572;2022-12-20T09:18:57;5.07;;;2.55;;
45887;SDS011;31595;51.418;7.572;2022-12-20T09:21:26;5.15;;;2.67;;
45887;SDS011;31595;51.418;7.572;2022-12-20T09:23:53;3.85;;;2.45;;
45887;SDS011;31595;51.418;7.572;2022-12-20T09:26:22;3.22;;;2.33;;
45887;SDS011;31595;51.418;7.572;2022-12-20T09:28:50;3.72;;;2.08;;
45887;SDS011;31595;51.418;7.572;2022-12-20T09:31:21;2.78;;;1.67;;
45887;SDS011;31595;51.418;7.572;2022-12-20T09:33:51;3.78;;;2.55;;
45887;SDS011;31595;51.418;7.572;2022-12-20T09:36:20;2.83;;;2.00;;
45887;SDS011;31595;51.418;7.572;2022-12-20T09:38:49;4.45;;;2.10;;
45887;SDS011;31595;51.418;7.572;2022-12-20T09:41:25;4.55;;;2.30;;
45887;SDS011;31595;51.418;7.572;2022-12-20T09:43:57;5.30;;;2.47;;
45887;SDS011;31595;51.418;7.572;2022-12-20T09:46:31;4.07;;;2.20;;
45887;SDS011;31595;51.418;7.572;2022-12-20T09:48:59;3.05;;;1.80;;
45887;SDS011;31595;51.418;7.572;2022-12-20T09:51:50;4.23;;;2.20;;
45887;SDS011;31595;51.418;7.572;2022-12-20T09:54:32;2.80;;;1.90;;
45887;SDS011;31595;51.418;7.572;2022-12-20T09:57:08;3.33;;;2.05;;
45887;SDS011;31595;51.418;7.572;2022-12-20T09:59:44;3.65;;;2.00;;
45887;SDS011;31595;51.418;7.572;2022-12-20T10:02:14;5.35;;;2.60;;
45887;SDS011;31595;51.418;7.572;2022-12-20T10:04:47;2.58;;;1.85;;
45887;SDS011;31595;51.418;7.572;2022-12-20T10:07:19;3.65;;;2.13;;
45887;SDS011;31595;51.418;7.572;2022-12-20T10:09:58;3.13;;;1.73;;
45887;SDS011;31595;51.418;7.572;2022-12-20T10:12:38;10.05;;;2.30;;
45887;SDS011;31595;51.418;7.572;2022-12-20T10:15:18;3.35;;;2.15;;
45887;SDS011;31595;51.418;7.572;2022-12-20T10:17:56;7.35;;;2.50;;
45887;SDS011;31595;51.418;7.572;2022-12-20T10:20:38;4.00;;;2.47;;
45887;SDS011;31595;51.418;7.572;2022-12-20T10:23:13;4.30;;;2.00;;
45887;SDS011;31595;51.418;7.572;2022-12-20T10:25:49;3.08;;;1.90;;
45887;SDS011;31595;51.418;7.572;2022-12-20T10:28:19;5.22;;;1.88;;
45887;SDS011;31595;51.418;7.572;2022-12-20T10:30:52;2.83;;;1.90;;
45887;SDS011;31595;51.418;7.572;2022-12-20T10:33:21;2.65;;;1.83;;
45887;SDS011;31595;51.418;7.572;2022-12-20T10:35:52;3.95;;;2.00;;
45887;SDS011;31595;51.418;7.572;2022-12-20T10:38:43;3.15;;;2.35;;
45887;SDS011;31595;51.418;7.572;2022-12-20T10:41:13;3.27;;;1.97;;
45887;SDS011;31595;51.418;7.572;2022-12-20T10:43:45;3.58;;;2.28;;
45887;SDS011;31595;51.418;7.572;2022-12-20T10:46:15;3.88;;;2.53;;
45887;SDS011;31595;51.418;7.572;2022-12-20T10:48:44;2.42;;;1.73;;
45887;SDS011;31595;51.418;7.572;2022-12-20T10:51:14;4.03;;;1.75;;
45887;SDS011;31595;51.418;7.572;2022-12-20T10:53:50;2.30;;;1.50;;
45887;SDS011;31595;51.418;7.572;2022-12-20T10:56:21;3.55;;;1.88;;
45887;SDS011;31595;51.418;7.572;2022-12-20T10:58:53;2.70;;;1.60;;
45887;SDS011;31595;51.418;7.572;2022-12-20T11:01:24;4.28;;;1.92;;
45887;SDS011;31595;51.418;7.572;2022-12-20T11:03:59;2.63;;;1.70;;
45887;SDS011;31595;51.418;7.572;2022-12-20T11:06:38;2.45;;;1.80;;
45887;SDS011;31595;51.418;7.572;2022-12-20T11:09:21;2.55;;;1.70;;
45887;SDS011;31595;51.418;7.572;2022-12-20T11:11:57;3.03;;;2.05;;
45887;SDS011;31595;51.418;7.572;2022-12-20T11:14:31;2.95;;;2.03;;
45887;SDS011;31595;51.418;7.572;2022-12-20T11:17:01;4.45;;;2.15;;
45887;SDS011;31595;51.418;7.572;2022-12-20T11:19:41;6.22;;;2.20;;
45887;SDS011;31595;51.418;7.572;2022-12-20T11:22:27;2.55;;;1.50;;
45887;SDS011;31595;51.418;7.572;2022-12-20T11:25:05;3.15;;;1.65;;
45887;SDS011;31595;51.418;7.572;2022-12-20T11:27:48;2.50;;;1.85;;
45887;SDS011;31595;51.418;7.572;2022-12-20T11:30:24;2.70;;;1.95;;
45887;SDS011;31595;51.418;7.572;2022-12-20T11:33:04;3.63;;;2.20;;
45887;SDS011;31595;51.418;7.572;2022-12-20T11:35:46;4.05;;;2.00;;
45887;SDS011;31595;51.418;7.572;2022-12-20T11:38:31;3.05;;;2.20;;
45887;SDS011;31595;51.418;7.572;2022-12-20T11:41:12;2.22;;;1.65;;
45887;SDS011;31595;51.418;7.572;2022-12-20T11:44:01;4.50;;;2.00;;
45887;SDS011;31595;51.418;7.572;2022-12-20T11:46:39;3.45;;;1.70;;
45887;SDS011;31595;51.418;7.572;2022-12-20T11:52:13;3.03;;;1.50;;
45887;SDS011;31595;51.418;7.572;2022-12-20T11:54:46;4.10;;;2.45;;
45887;SDS011;31595;51.418;7.572;2022-12-20T11:57:20;3.35;;;2.03;;
45887;SDS011;31595;51.418;7.572;2022-12-20T11:59:52;3.65;;;2.47;;
45887;SDS011;31595;51.418;7.572;2022-12-20T12:02:25;5.93;;;2.00;;
45887;SDS011;31595;51.418;7.572;2022-12-20T12:04:59;2.38;;;1.67;;
45887;SDS011;31595;51.418;7.572;2022-12-20T12:07:31;2.92;;;2.00;;
45887;SDS011;31595;51.418;7.572;2022-12-20T12:10:01;4.68;;;2.13;;
45887;SDS011;31595;51.418;7.572;2022-12-20T12:12:33;4.00;;;1.90;;
45887;SDS011;31595;51.418;7.572;2022-12-20T12:15:10;3.20;;;2.00;;
45887;SDS011;31595;51.418;7.572;2022-12-20T12:17:46;3.28;;;1.85;;
45887;SDS011;31595;51.418;7.572;2022-12-20T12:20:23;3.80;;;1.80;;
45887;SDS011;31595;51.418;7.572;2022-12-20T12:23:01;4.05;;;1.95;;
45887;SDS011;31595;51.418;7.572;2022-12-20T12:25:33;4.43;;;1.80;;
45887;SDS011;31595;51.418;7.572;2022-12-20T12:28:02;3.65;;;1.83;;
45887;SDS011;31595;51.418;7.572;2022-12-20T12:30:37;3.20;;;1.70;;
45887;SDS011;31595;51.418;7.572;2022-12-20T12:33:10;2.67;;;1.90;;
45887;SDS011;31595;51.418;7.572;2022-12-20T12:35:45;3.72;;;2.03;;
45887;SDS011;31595;51.418;7.572;2022-12-20T12:38:28;3.92;;;2.10;;
45887;SDS011;31595;51.418;7.572;2022-12-20T12:41:16;5.53;;;2.10;;
45887;SDS011;31595;51.418;7.572;2022-12-20T12:44:20;2.95;;;1.92;;
45887;SDS011;31595;51.418;7.572;2022-12-20T12:46:58;3.10;;;1.77;;
45887;SDS011;31595;51.418;7.572;2022-12-20T12:49:29;3.10;;;1.77;;
45887;SDS011;31595;51.418;7.572;2022-12-20T12:54:28;4.22;;;1.98;;
45887;SDS011;31595;51.418;7.572;2022-12-20T12:57:02;2.63;;;2.03;;
45887;SDS011;31595;51.418;7.572;2022-12-20T12:59:42;3.08;;;1.92;;
45887;SDS011;31595;51.418;7.572;2022-12-20T13:08:09;3.05;;;1.90;;
45887;SDS011;31595;51.418;7.572;2022-12-20T13:10:59;4.25;;;2.10;;
45887;SDS011;31595;51.418;7.572;2022-12-20T13:13:27;3.42;;;2.00;;
45887;SDS011;31595;51.418;7.572;2022-12-20T13:16:05;3.58;;;2.13;;
45887;SDS011;31595;51.418;7.572;2022-12-20T13:18:51;3.85;;;2.05;;
45887;SDS011;31595;51.418;7.572;2022-12-20T13:27:20;3.28;;;2.00;;
45887;SDS011;31595;51.418;7.572;2022-12-20T13:33:01;3.83;;;1.58;;
45887;SDS011;31595;51.418;7.572;2022-12-20T13:35:52;3.17;;;1.88;;
45887;SDS011;31595;51.418;7.572;2022-12-20T13:38:38;3.95;;;1.70;;
45887;SDS011;31595;51.418;7.572;2022-12-20T13:41:18;3.47;;;1.70;;
45887;SDS011;31595;51.418;7.572;2022-12-20T13:43:52;2.22;;;1.58;;
45887;SDS011;31595;51.418;7.572;2022-12-20T13:46:23;3.10;;;1.85;;
45887;SDS011;31595;51.418;7.572;2022-12-20T13:48:58;2.83;;;2.00;;
45887;SDS011;31595;51.418;7.572;2022-12-20T13:51:28;2.50;;;1.75;;
45887;SDS011;31595;51.418;7.572;2022-12-20T13:53:57;2.95;;;1.95;;
45887;SDS011;31595;51.418;7.572;2022-12-20T13:56:37;3.42;;;2.00;;
45887;SDS011;31595;51.418;7.572;2022-12-20T13:59:13;2.70;;;1.98;;
45887;SDS011;31595;51.418;7.572;2022-12-20T14:01:47;3.00;;;1.98;;
45887;SDS011;31595;51.418;7.572;2022-12-20T14:04:16;4.28;;;1.90;;
45887;SDS011;31595;51.418;7.572;2022-12-20T14:06:48;4.68;;;2.00;;
45887;SDS011;31595;51.418;7.572;2022-12-20T14:09:25;3.90;;;2.25;;
45887;SDS011;31595;51.418;7.572;2022-12-20T14:12:01;3.67;;;2.00;;
45887;SDS011;31595;51.418;7.572;2022-12-20T14:14:33;3.45;;;1.98;;
45887;SDS011;31595;51.418;7.572;2022-12-20T14:22:38;2.70;;;1.85;;
45887;SDS011;31595;51.418;7.572;2022-12-20T14:25:10;3.67;;;1.80;;
45887;SDS011;31595;51.418;7.572;2022-12-20T14:27:41;4.68;;;2.20;;
45887;SDS011;31595;51.418;7.572;2022-12-20T14:33:02;2.45;;;1.80;;
45887;SDS011;31595;51.418;7.572;2022-12-20T14:35:29;2.97;;;1.65;;
45887;SDS011;31595;51.418;7.572;2022-12-20T14:37:58;3.30;;;2.05;;
45887;SDS011;31595;51.418;7.572;2022-12-20T14:40:28;3.88;;;2.25;;
45887;SDS011;31595;51.418;7.572;2022-12-20T14:42:56;4.75;;;2.00;;
45887;SDS011;31595;51.418;7.572;2022-12-20T14:45:24;3.55;;;2.05;;
45887;SDS011;31595;51.418;7.572;2022-12-20T14:47:54;3.38;;;2.10;;
45887;SDS011;31595;51.418;7.572;2022-12-20T14:50:28;3.53;;;2.20;;
45887;SDS011;31595;51.418;7.572;2022-12-20T14:53:00;4.15;;;2.83;;
45887;SDS011;31595;51.418;7.572;2022-12-20T14:55:32;3.80;;;2.17;;
45887;SDS011;31595;51.418;7.572;2022-12-20T14:58:05;3.42;;;2.03;;
45887;SDS011;31595;51.418;7.572;2022-12-20T15:00:54;4.60;;;2.80;;
45887;SDS011;31595;51.418;7.572;2022-12-20T15:03:23;5.45;;;3.05;;
45887;SDS011;31595;51.418;7.572;2022-12-20T15:05:53;6.68;;;3.35;;
45887;SDS011;31595;51.418;7.572;2022-12-20T15:08:23;5.00;;;2.90;;
45887;SDS011;31595;51.418;7.572;2022-12-20T15:10:56;12.40;;;3.75;;
45887;SDS011;31595;51.418;7.572;2022-12-20T15:13:29;6.13;;;3.33;;
45887;SDS011;31595;51.418;7.572;2022-12-20T15:16:01;5.18;;;3.08;;
45887;SDS011;31595;51.418;7.572;2022-12-20T15:18:31;6.53;;;4.05;;
45887;SDS011;31595;51.418;7.572;2022-12-20T15:21:09;5.90;;;3.50;;
45887;SDS011;31595;51.418;7.572;2022-12-20T15:23:54;4.13;;;2.80;;
45887;SDS011;31595;51.418;7.572;2022-12-20T15:26:23;6.32;;;3.30;;
45887;SDS011;31595;51.418;7.572;2022-12-20T15:28:52;4.68;;;3.80;;
45887;SDS011;31595;51.418;7.572;2022-12-20T15:31:20;7.15;;;3.97;;
45887;SDS011;31595;51.418;7.572;2022-12-20T15:33:49;6.32;;;3.60;;
45887;SDS011;31595;51.418;7.572;2022-12-20T15:36:20;5.03;;;2.90;;
45887;SDS011;31595;51.418;7.572;2022-12-20T15:38:51;6.93;;;3.10;;
45887;SDS011;31595;51.418;7.572;2022-12-20T15:41:21;5.38;;;2.80;;
45887;SDS011;31595;51.418;7.572;2022-12-20T15:43:50;4.20;;;3.03;;
45887;SDS011;31595;51.418;7.572;2022-12-20T15:48:46;4.35;;;2.90;;
45887;SDS011;31595;51.418;7.572;2022-12-20T15:51:15;13.10;;;3.28;;